Time;durP1;ratioP1;P1;durP2;ratioP2;P2;SDS_P1;SDS_P2;PMS_P1;PMS_P2;Temp;Humidity;BMP_temperature;BMP_pressure;BME280_temperature;BME280_humidity;BME280_pressure;Samples;Min_cycle;Max_cycle;Signal;HPM_P1;HPM_P2
2021/08/20 00:00:07;;;;;;;16.98;15.18;;;15.10;99.90;;;;;;5006102;28;20036;-85
2021/08/20 00:02:34;;;;;;;22.05;15.98;;;15.00;99.90;;;;;;5011268;28;20029;-85
2021/08/20 00:05:00;;;;;;;19.40;15.25;;;15.00;99.90;;;;;;5029667;28;20049;-85
2021/08/20 00:07:25;;;;;;;22.13;16.55;;;15.00;99.90;;;;;;5026123;28;20080;-85
2021/08/20 00:09:55;;;;;;;18.70;14.70;;;15.00;99.90;;;;;;5013382;28;20071;-85
2021/08/20 00:12:20;;;;;;;17.20;14.05;;;15.00;99.90;;;;;;5011965;28;20026;-85
2021/08/20 00:14:46;;;;;;;17.70;14.45;;;15.00;99.90;;;;;;5013689;28;20580;-85
2021/08/20 00:17:12;;;;;;;20.10;14.02;;;15.00;99.90;;;;;;5011156;28;20544;-84
2021/08/20 00:19:38;;;;;;;21.50;14.82;;;15.00;99.90;;;;;;5008851;28;20084;-84
2021/08/20 00:22:08;;;;;;;19.17;13.73;;;15.00;99.90;;;;;;5008714;28;20030;-85
2021/08/20 00:24:34;;;;;;;17.98;13.90;;;15.00;99.90;;;;;;5010274;28;20121;-85
2021/08/20 00:27:00;;;;;;;20.83;15.27;;;14.90;99.90;;;;;;5011684;28;20018;-86
2021/08/20 00:29:26;;;;;;;20.70;15.05;;;14.80;99.90;;;;;;5010974;28;20085;-85
2021/08/20 00:31:52;;;;;;;22.00;15.18;;;14.80;99.90;;;;;;5011595;28;20044;-85
2021/08/20 00:34:17;;;;;;;21.05;15.73;;;14.70;99.90;;;;;;5011153;28;20022;-85
2021/08/20 00:36:43;;;;;;;24.75;16.92;;;14.70;99.90;;;;;;5007056;28;20095;-85
2021/08/20 00:39:08;;;;;;;24.98;15.85;;;14.70;99.90;;;;;;5013968;28;20075;-85
2021/08/20 00:41:34;;;;;;;23.10;16.35;;;14.60;99.90;;;;;;5011401;28;20121;-85
2021/08/20 00:44:00;;;;;;;20.70;15.73;;;14.60;99.90;;;;;;5013307;28;20516;-85
2021/08/20 00:46:27;;;;;;;19.48;15.88;;;14.60;99.90;;;;;;4996526;28;20041;-85
2021/08/20 00:48:52;;;;;;;21.30;16.00;;;14.60;99.90;;;;;;5006314;28;20363;-85
2021/08/20 00:51:24;;;;;;;20.05;15.38;;;14.50;99.90;;;;;;5015459;28;20037;-85
2021/08/20 00:53:52;;;;;;;21.90;15.68;;;14.50;99.90;;;;;;5013547;28;20030;-85
2021/08/20 00:56:18;;;;;;;22.88;15.82;;;14.50;99.90;;;;;;5013217;28;20037;-85
2021/08/20 00:58:46;;;;;;;22.35;16.92;;;14.50;99.90;;;;;;5012607;28;20025;-85
2021/08/20 01:01:12;;;;;;;19.92;15.77;;;14.50;99.90;;;;;;5013325;28;20030;-85
2021/08/20 01:03:38;;;;;;;22.15;16.20;;;14.50;99.90;;;;;;5015191;28;20034;-85
2021/08/20 01:06:05;;;;;;;25.83;17.58;;;14.50;99.90;;;;;;5014839;28;20104;-85
2021/08/20 01:08:33;;;;;;;23.88;17.65;;;14.50;99.90;;;;;;5013729;28;20057;-85
2021/08/20 01:11:00;;;;;;;22.65;16.95;;;14.50;99.90;;;;;;5014933;28;20026;-84
2021/08/20 01:13:26;;;;;;;22.30;17.30;;;14.50;99.90;;;;;;5013286;28;20058;-85
2021/08/20 01:15:55;;;;;;;23.88;17.15;;;14.50;99.90;;;;;;5012542;28;20046;-86
2021/08/20 01:18:25;;;;;;;28.10;16.88;;;14.50;99.90;;;;;;5014708;28;20029;-85
2021/08/20 01:20:55;;;;;;;22.88;17.30;;;14.50;99.90;;;;;;5021325;28;20390;-85
2021/08/20 01:23:25;;;;;;;23.77;17.35;;;14.50;99.90;;;;;;5012826;28;20022;-86
2021/08/20 01:25:51;;;;;;;24.73;17.10;;;14.50;99.90;;;;;;5008650;28;20033;-85
2021/08/20 01:28:17;;;;;;;25.20;16.83;;;14.50;99.90;;;;;;5012225;28;20034;-85
2021/08/20 01:30:42;;;;;;;23.20;16.98;;;14.40;99.90;;;;;;5012275;28;20022;-85
2021/08/20 01:33:09;;;;;;;21.67;17.83;;;14.40;99.90;;;;;;5014263;28;20394;-85
2021/08/20 01:35:35;;;;;;;22.58;17.23;;;14.50;99.90;;;;;;5014111;28;20041;-85
2021/08/20 01:38:02;;;;;;;22.48;17.95;;;14.50;99.90;;;;;;5004409;28;20030;-85
2021/08/20 01:40:28;;;;;;;26.48;17.38;;;14.50;99.90;;;;;;5013588;28;20014;-85
2021/08/20 01:42:53;;;;;;;26.38;18.60;;;14.60;99.90;;;;;;5013911;28;20036;-85
2021/08/20 01:45:19;;;;;;;26.63;17.42;;;14.60;99.90;;;;;;5012149;28;20014;-85
2021/08/20 01:47:45;;;;;;;27.33;19.40;;;14.60;99.90;;;;;;5013099;28;20075;-85
2021/08/20 01:50:11;;;;;;;27.42;19.65;;;14.60;99.90;;;;;;5012585;28;20447;-85
2021/08/20 01:52:37;;;;;;;24.15;18.85;;;14.60;99.90;;;;;;5013761;28;20524;-85
2021/08/20 01:55:08;;;;;;;27.33;19.63;;;14.60;99.90;;;;;;5014151;28;20040;-86
2021/08/20 01:57:46;;;;;;;25.90;19.65;;;14.60;99.90;;;;;;5012332;28;20026;-87
2021/08/20 02:00:13;;;;;;;27.85;20.60;;;14.60;99.90;;;;;;5001610;28;20026;-86
2021/08/20 02:02:38;;;;;;;30.08;20.17;;;14.70;99.90;;;;;;5010621;28;20125;-86
2021/08/20 02:05:04;;;;;;;28.23;19.67;;;14.70;99.90;;;;;;5010190;28;20100;-86
2021/08/20 02:07:34;;;;;;;25.70;20.23;;;14.70;99.90;;;;;;5006864;28;20064;-86
2021/08/20 02:10:00;;;;;;;26.48;20.23;;;14.80;99.90;;;;;;5011688;28;20543;-86
2021/08/20 02:12:26;;;;;;;30.80;21.42;;;14.80;99.90;;;;;;5012980;28;20076;-85
2021/08/20 02:14:51;;;;;;;31.90;21.23;;;14.90;99.90;;;;;;5012871;28;20113;-86
2021/08/20 02:17:17;;;;;;;29.27;20.95;;;14.90;99.90;;;;;;5023639;28;20471;-85
2021/08/20 02:19:42;;;;;;;31.77;21.75;;;14.90;99.90;;;;;;5012392;28;20026;-85
2021/08/20 02:22:08;;;;;;;30.05;20.98;;;14.90;99.90;;;;;;5016895;28;20441;-86
2021/08/20 02:24:33;;;;;;;30.77;22.05;;;14.90;99.90;;;;;;5013783;28;20064;-86
2021/08/20 02:26:58;;;;;;;28.25;22.23;;;14.90;99.90;;;;;;5011912;28;20493;-85
2021/08/20 02:29:24;;;;;;;26.35;20.08;;;15.00;99.90;;;;;;5031778;28;20064;-86
2021/08/20 02:31:49;;;;;;;31.25;20.05;;;14.90;99.90;;;;;;5012718;28;20045;-86
2021/08/20 02:34:15;;;;;;;29.48;21.75;;;14.90;99.90;;;;;;5011849;28;20026;-85
2021/08/20 02:36:42;;;;;;;29.05;21.45;;;14.90;99.90;;;;;;5013816;28;20037;-85
2021/08/20 02:39:07;;;;;;;27.45;20.73;;;14.80;99.90;;;;;;5015727;28;20018;-86
2021/08/20 02:41:33;;;;;;;27.73;20.83;;;14.80;99.90;;;;;;5012830;28;20048;-85
2021/08/20 02:43:58;;;;;;;26.02;19.88;;;14.70;99.90;;;;;;5012722;28;20571;-86
2021/08/20 02:46:24;;;;;;;27.92;21.38;;;14.70;99.90;;;;;;5015049;28;20071;-86
2021/08/20 02:48:49;;;;;;;30.58;22.17;;;14.70;99.90;;;;;;5017165;28;20041;-85
2021/08/20 02:51:15;;;;;;;27.08;21.65;;;14.70;99.90;;;;;;5020491;28;20133;-86
2021/08/20 02:53:42;;;;;;;30.42;21.70;;;14.70;99.90;;;;;;5015830;28;20108;-86
2021/08/20 02:56:08;;;;;;;32.75;22.55;;;14.70;99.90;;;;;;5033138;28;20064;-85
2021/08/20 02:58:34;;;;;;;32.03;22.35;;;14.80;99.90;;;;;;5004394;28;20045;-86
2021/08/20 03:00:59;;;;;;;33.13;21.85;;;14.80;99.90;;;;;;5031028;28;20030;-86
2021/08/20 03:03:25;;;;;;;30.33;22.20;;;14.80;99.90;;;;;;5015408;28;20485;-86
2021/08/20 03:05:50;;;;;;;33.53;22.17;;;14.90;99.90;;;;;;5030672;28;20401;-86
2021/08/20 03:08:16;;;;;;;32.55;23.65;;;14.90;99.90;;;;;;5010743;28;20036;-86
2021/08/20 03:10:42;;;;;;;27.80;21.52;;;14.90;99.90;;;;;;5015668;28;20040;-86
2021/08/20 03:13:08;;;;;;;30.90;22.67;;;14.90;99.90;;;;;;5013246;28;20394;-86
2021/08/20 03:15:34;;;;;;;34.45;24.17;;;15.00;99.90;;;;;;5012966;28;20418;-86
2021/08/20 03:18:01;;;;;;;33.85;23.85;;;15.00;99.90;;;;;;5016615;28;20478;-85
2021/08/20 03:20:27;;;;;;;28.92;21.88;;;15.00;99.90;;;;;;5028471;28;20588;-85
2021/08/20 03:22:52;;;;;;;30.00;21.60;;;15.10;99.90;;;;;;5013238;28;20230;-86
2021/08/20 03:25:18;;;;;;;33.70;22.85;;;15.10;99.90;;;;;;5031682;28;20033;-86
2021/08/20 03:27:43;;;;;;;32.70;22.25;;;15.10;99.90;;;;;;5033654;28;20132;-86
2021/08/20 03:30:09;;;;;;;30.80;22.10;;;15.10;99.90;;;;;;5014656;28;20032;-84
2021/08/20 03:32:35;;;;;;;31.20;22.27;;;15.10;99.90;;;;;;5030995;28;20038;-84
2021/08/20 03:35:01;;;;;;;32.28;22.52;;;15.10;99.90;;;;;;5015903;28;20039;-84
2021/08/20 03:37:26;;;;;;;31.33;22.80;;;15.10;99.90;;;;;;5016623;28;20041;-83
2021/08/20 03:39:53;;;;;;;32.58;22.15;;;15.10;99.90;;;;;;5012787;28;20022;-84
2021/08/20 03:42:18;;;;;;;32.13;22.90;;;15.10;99.90;;;;;;5009436;28;20083;-84
2021/08/20 03:44:44;;;;;;;35.63;22.42;;;15.10;99.90;;;;;;5013979;28;20120;-83
2021/08/20 03:47:09;;;;;;;35.17;23.17;;;15.10;99.90;;;;;;5031667;28;20508;-83
2021/08/20 03:49:35;;;;;;;30.33;21.05;;;15.10;99.90;;;;;;5002933;28;20022;-84
2021/08/20 03:52:00;;;;;;;35.97;23.20;;;15.10;99.90;;;;;;5030865;28;20044;-83
2021/08/20 03:54:26;;;;;;;36.10;22.98;;;15.00;99.90;;;;;;5022284;28;20112;-85
2021/08/20 03:56:51;;;;;;;32.22;22.95;;;15.00;99.90;;;;;;5010061;28;20068;-86
2021/08/20 03:59:17;;;;;;;31.98;22.67;;;15.00;99.90;;;;;;5013514;28;20766;-85
2021/08/20 04:01:43;;;;;;;34.40;22.63;;;15.00;99.90;;;;;;5012949;28;20037;-86
2021/08/20 04:04:08;;;;;;;36.17;21.77;;;15.00;99.90;;;;;;5002240;28;20426;-85
2021/08/20 04:06:34;;;;;;;33.55;22.00;;;15.00;99.90;;;;;;5021719;28;20441;-84
2021/08/20 04:08:59;;;;;;;31.98;22.65;;;15.00;99.90;;;;;;5014936;28;20034;-85
2021/08/20 04:11:25;;;;;;;32.47;22.42;;;15.00;99.90;;;;;;5016116;28;20029;-85
2021/08/20 04:13:50;;;;;;;32.28;22.58;;;15.00;99.90;;;;;;5008996;28;20075;-85
2021/08/20 04:16:16;;;;;;;34.65;22.75;;;14.90;99.90;;;;;;5016760;28;20057;-85
2021/08/20 04:18:42;;;;;;;35.63;23.98;;;14.90;99.90;;;;;;5019429;28;20164;-85
2021/08/20 04:21:08;;;;;;;31.67;21.80;;;14.90;99.90;;;;;;5017573;28;20057;-85
2021/08/20 04:23:35;;;;;;;34.58;23.15;;;14.90;99.90;;;;;;5018203;28;20033;-85
2021/08/20 04:26:00;;;;;;;39.33;22.35;;;15.00;99.90;;;;;;5016854;28;20091;-85
2021/08/20 04:28:26;;;;;;;36.85;22.10;;;15.00;99.90;;;;;;5016383;28;20034;-85
2021/08/20 04:30:51;;;;;;;34.45;22.08;;;15.00;99.90;;;;;;5017165;28;20018;-85
2021/08/20 04:33:17;;;;;;;34.42;21.48;;;14.90;99.90;;;;;;5015994;28;20032;-85
2021/08/20 04:35:43;;;;;;;40.33;23.15;;;14.90;99.90;;;;;;5002840;28;20085;-85
2021/08/20 04:38:08;;;;;;;36.10;22.30;;;14.90;99.90;;;;;;5036870;28;20025;-85
2021/08/20 04:40:34;;;;;;;34.65;22.98;;;14.90;99.90;;;;;;5017204;28;20485;-84
2021/08/20 04:42:59;;;;;;;39.35;24.15;;;14.90;99.90;;;;;;5014662;28;20030;-85
2021/08/20 04:45:25;;;;;;;42.50;25.30;;;14.90;99.90;;;;;;5037103;28;20433;-85
2021/08/20 04:47:50;;;;;;;37.13;23.17;;;14.90;99.90;;;;;;5016957;28;20029;-85
2021/08/20 04:50:17;;;;;;;40.75;25.15;;;14.90;99.90;;;;;;5033349;28;20030;-85
2021/08/20 04:52:43;;;;;;;43.15;25.20;;;15.00;99.90;;;;;;5027543;28;20140;-84
2021/08/20 04:55:08;;;;;;;48.83;24.90;;;15.00;99.90;;;;;;5018705;28;20477;-85
2021/08/20 04:57:34;;;;;;;40.25;24.90;;;15.00;99.90;;;;;;5016351;28;20045;-84
2021/08/20 05:00:00;;;;;;;42.58;24.83;;;15.10;99.90;;;;;;5031610;28;20026;-85
2021/08/20 05:02:29;;;;;;;40.00;23.95;;;15.10;99.90;;;;;;5013545;28;20030;-85
2021/08/20 05:04:54;;;;;;;37.92;23.48;;;15.20;99.90;;;;;;5011880;28;20047;-85
2021/08/20 05:07:20;;;;;;;38.03;22.80;;;15.20;99.90;;;;;;5016397;28;20030;-85
2021/08/20 05:09:45;;;;;;;37.55;21.27;;;15.20;99.90;;;;;;5019486;28;20030;-85
2021/08/20 05:12:11;;;;;;;35.60;21.88;;;15.30;99.90;;;;;;5017530;28;20124;-85
2021/08/20 05:14:36;;;;;;;35.90;22.27;;;15.30;99.90;;;;;;5014925;28;20105;-86
2021/08/20 05:17:02;;;;;;;34.95;21.08;;;15.30;99.90;;;;;;5015840;28;20052;-85
2021/08/20 05:19:28;;;;;;;33.67;20.88;;;15.40;99.90;;;;;;5033486;28;20404;-85
2021/08/20 05:21:53;;;;;;;34.20;20.75;;;15.40;99.90;;;;;;5014624;28;20189;-85
2021/08/20 05:24:19;;;;;;;33.22;21.23;;;15.50;99.90;;;;;;5017191;28;20389;-86
2021/08/20 05:26:44;;;;;;;33.85;20.08;;;15.50;99.90;;;;;;5014895;28;20029;-85
2021/08/20 05:29:10;;;;;;;34.17;20.83;;;15.50;99.90;;;;;;5013593;28;20064;-87
2021/08/20 05:31:35;;;;;;;35.50;21.40;;;15.60;99.90;;;;;;5032680;28;20036;-86
2021/08/20 05:34:01;;;;;;;32.15;20.88;;;15.60;99.90;;;;;;5012643;28;20026;-86
2021/08/20 05:36:27;;;;;;;27.85;19.23;;;15.60;99.90;;;;;;5033172;28;20061;-86
2021/08/20 05:38:53;;;;;;;29.85;19.95;;;15.70;99.90;;;;;;5002632;28;20029;-86
2021/08/20 05:41:19;;;;;;;30.23;19.38;;;15.70;99.90;;;;;;5019143;28;20036;-85
2021/08/20 05:43:44;;;;;;;31.40;17.85;;;15.80;99.90;;;;;;5033177;28;20021;-85
2021/08/20 05:46:10;;;;;;;27.80;18.98;;;15.80;99.90;;;;;;5011265;28;20398;-85
2021/08/20 05:48:35;;;;;;;30.55;19.38;;;15.80;99.90;;;;;;5002901;28;20098;-85
2021/08/20 05:51:01;;;;;;;30.70;17.85;;;15.80;99.90;;;;;;5032396;28;20033;-86
2021/08/20 05:53:26;;;;;;;28.90;18.15;;;15.90;99.90;;;;;;5015438;28;20025;-87
2021/08/20 05:55:52;;;;;;;27.17;18.00;;;15.90;99.90;;;;;;5028829;28;20029;-86
2021/08/20 05:58:17;;;;;;;27.52;17.48;;;15.90;99.90;;;;;;4997039;28;20060;-87
2021/08/20 06:00:43;;;;;;;29.30;18.48;;;16.00;99.90;;;;;;5033927;28;20041;-86
2021/08/20 06:03:09;;;;;;;27.08;18.83;;;16.10;99.90;;;;;;5016124;28;20037;-87
2021/08/20 06:05:34;;;;;;;28.05;17.40;;;16.20;99.90;;;;;;5016046;28;20397;-87
2021/08/20 06:08:01;;;;;;;31.13;17.92;;;16.30;99.90;;;;;;5017069;28;20032;-86
2021/08/20 06:10:27;;;;;;;24.27;16.83;;;16.40;99.90;;;;;;5016519;28;20126;-86
2021/08/20 06:12:53;;;;;;;24.65;16.85;;;16.40;99.90;;;;;;5017434;28;20040;-87
2021/08/20 06:15:19;;;;;;;26.52;18.35;;;16.50;99.90;;;;;;5016647;28;20041;-85
2021/08/20 06:17:46;;;;;;;24.08;16.98;;;16.60;99.90;;;;;;5016894;28;20050;-84
2021/08/20 06:20:12;;;;;;;24.25;17.48;;;16.50;99.90;;;;;;5016179;28;20116;-85
2021/08/20 06:22:38;;;;;;;23.88;16.60;;;16.60;99.90;;;;;;5012761;28;20033;-85
2021/08/20 06:25:05;;;;;;;25.33;17.13;;;16.70;99.90;;;;;;5017973;28;20033;-85
2021/08/20 06:27:30;;;;;;;23.45;16.50;;;16.80;99.90;;;;;;5017448;28;20029;-85
2021/08/20 06:29:56;;;;;;;23.95;16.08;;;16.80;99.90;;;;;;5014845;28;20014;-85
2021/08/20 06:32:21;;;;;;;24.60;17.20;;;16.80;99.90;;;;;;5017143;28;20119;-85
2021/08/20 06:34:47;;;;;;;21.30;15.23;;;16.80;99.90;;;;;;5016821;28;20025;-85
2021/08/20 06:37:12;;;;;;;23.95;16.02;;;16.80;99.90;;;;;;5016992;28;20188;-84
2021/08/20 06:39:38;;;;;;;22.98;15.85;;;16.70;99.90;;;;;;5034146;28;20029;-84
2021/08/20 06:42:04;;;;;;;21.45;14.80;;;16.70;99.90;;;;;;5034244;28;20029;-85
2021/08/20 06:44:29;;;;;;;19.65;13.45;;;16.80;99.90;;;;;;5016969;28;20390;-85
2021/08/20 06:46:55;;;;;;;22.98;13.75;;;16.90;99.90;;;;;;5016080;28;20393;-85
2021/08/20 06:49:20;;;;;;;19.52;13.40;;;17.00;99.90;;;;;;5015018;28;20492;-84
2021/08/20 06:51:46;;;;;;;22.85;14.23;;;17.10;99.90;;;;;;5014786;28;20075;-85
2021/08/20 06:54:11;;;;;;;20.88;13.70;;;17.20;99.90;;;;;;5034409;28;20108;-86
2021/08/20 06:56:37;;;;;;;19.55;14.25;;;17.30;99.90;;;;;;5014578;28;20128;-85
2021/08/20 06:59:02;;;;;;;17.95;13.27;;;17.40;99.90;;;;;;5027674;28;20136;-84
2021/08/20 07:01:28;;;;;;;19.05;13.32;;;17.50;99.90;;;;;;5016630;28;20614;-85
2021/08/20 07:03:55;;;;;;;19.48;13.68;;;17.70;99.90;;;;;;5018315;28;20087;-85
2021/08/20 07:06:23;;;;;;;20.02;13.48;;;17.70;99.90;;;;;;5015106;28;20396;-84
2021/08/20 07:08:49;;;;;;;20.13;13.57;;;17.80;99.90;;;;;;5017369;28;20029;-84
2021/08/20 07:11:16;;;;;;;19.73;13.95;;;17.80;99.90;;;;;;5026852;28;20371;-85
2021/08/20 07:13:41;;;;;;;22.15;15.30;;;17.80;99.90;;;;;;4997472;28;20022;-85
2021/08/20 07:16:07;;;;;;;19.75;15.43;;;17.80;99.90;;;;;;5005103;28;20049;-84
2021/08/20 07:18:34;;;;;;;25.63;16.73;;;17.80;99.90;;;;;;5032854;28;20282;-85
2021/08/20 07:21:00;;;;;;;20.70;14.65;;;17.80;99.90;;;;;;5015667;28;20032;-84
2021/08/20 07:23:25;;;;;;;21.70;15.63;;;17.90;99.90;;;;;;5034660;28;20025;-84
2021/08/20 07:25:51;;;;;;;21.38;15.55;;;18.00;99.90;;;;;;5017235;28;20029;-84
2021/08/20 07:28:16;;;;;;;20.88;14.40;;;18.10;99.90;;;;;;5032911;28;20116;-85
2021/08/20 07:30:42;;;;;;;18.90;14.48;;;18.20;99.90;;;;;;4997035;28;20454;-85
2021/08/20 07:33:07;;;;;;;18.08;13.90;;;18.30;99.90;;;;;;5016534;28;20112;-85
2021/08/20 07:35:33;;;;;;;18.42;14.73;;;18.40;99.90;;;;;;5015652;28;20124;-85
2021/08/20 07:37:58;;;;;;;18.30;16.25;;;18.50;99.90;;;;;;5015942;28;20030;-84
2021/08/20 07:40:24;;;;;;;20.88;15.70;;;18.60;99.90;;;;;;5014932;28;20021;-84
2021/08/20 07:42:49;;;;;;;20.55;15.05;;;18.60;99.90;;;;;;5016818;28;20036;-85
2021/08/20 07:45:15;;;;;;;21.80;16.02;;;18.70;99.90;;;;;;5018757;28;20026;-85
2021/08/20 07:47:46;;;;;;;19.15;15.68;;;18.80;99.90;;;;;;5014388;28;20022;-85
2021/08/20 07:50:12;;;;;;;19.67;14.25;;;19.00;99.90;;;;;;5017196;28;20033;-85
2021/08/20 07:52:37;;;;;;;18.15;15.50;;;19.20;99.90;;;;;;5000734;28;20494;-85
2021/08/20 07:55:03;;;;;;;19.13;15.88;;;19.30;99.90;;;;;;5018323;28;20036;-86
2021/08/20 07:57:29;;;;;;;24.25;14.75;;;19.40;99.90;;;;;;5017853;28;20504;-86
2021/08/20 07:59:54;;;;;;;17.02;14.27;;;19.60;99.90;;;;;;5018990;28;20028;-86
2021/08/20 08:02:20;;;;;;;19.27;16.10;;;19.60;99.90;;;;;;5018048;28;20551;-85
2021/08/20 08:04:45;;;;;;;18.88;15.88;;;19.70;99.80;;;;;;5018911;28;20020;-86
2021/08/20 08:07:11;;;;;;;18.60;16.48;;;19.80;99.70;;;;;;5018183;28;20017;-86
2021/08/20 08:09:36;;;;;;;21.00;17.35;;;19.80;99.20;;;;;;5018576;28;20025;-86
2021/08/20 08:12:02;;;;;;;20.75;16.73;;;19.70;99.00;;;;;;5019107;28;20442;-86
2021/08/20 08:14:29;;;;;;;17.98;16.08;;;19.70;99.00;;;;;;5018067;28;20029;-85
2021/08/20 08:16:54;;;;;;;20.35;16.73;;;19.70;99.20;;;;;;5016893;28;20080;-85
2021/08/20 08:19:20;;;;;;;21.05;17.70;;;19.70;99.10;;;;;;5018353;28;20029;-86
2021/08/20 08:21:46;;;;;;;23.85;19.52;;;19.80;99.00;;;;;;5008666;28;20033;-86
2021/08/20 08:24:11;;;;;;;18.85;16.55;;;19.80;98.90;;;;;;5037527;28;20470;-85
2021/08/20 08:26:37;;;;;;;22.05;16.95;;;20.00;99.20;;;;;;5019139;28;20033;-86
2021/08/20 08:29:02;;;;;;;20.33;16.90;;;20.20;98.80;;;;;;5019146;28;20531;-85
2021/08/20 08:31:28;;;;;;;18.95;15.63;;;20.40;98.60;;;;;;5019735;28;20051;-85
2021/08/20 08:33:54;;;;;;;18.60;15.32;;;20.60;98.20;;;;;;5020091;28;20032;-85
2021/08/20 08:36:19;;;;;;;17.15;15.25;;;20.80;97.80;;;;;;5018434;28;20112;-85
2021/08/20 08:38:45;;;;;;;17.67;14.60;;;20.80;97.40;;;;;;5019518;28;20021;-86
2021/08/20 08:41:11;;;;;;;17.75;15.63;;;21.00;97.30;;;;;;5019302;28;20025;-85
2021/08/20 08:43:36;;;;;;;18.33;15.13;;;21.10;97.00;;;;;;5020161;28;20026;-85
2021/08/20 08:46:05;;;;;;;16.98;14.80;;;21.30;96.80;;;;;;5019982;28;20030;-85
2021/08/20 08:48:37;;;;;;;17.90;14.32;;;21.40;96.50;;;;;;5017803;28;20057;-85
2021/08/20 08:51:04;;;;;;;15.20;13.50;;;21.50;96.30;;;;;;5017392;28;20036;-85
2021/08/20 08:53:29;;;;;;;16.83;14.25;;;21.60;95.80;;;;;;5024275;28;20037;-85
2021/08/20 08:55:55;;;;;;;17.20;13.75;;;21.50;95.40;;;;;;5031988;28;20033;-86
2021/08/20 08:58:21;;;;;;;14.57;12.73;;;21.50;95.30;;;;;;5019066;28;20040;-86
2021/08/20 09:00:47;;;;;;;15.70;13.27;;;21.50;95.40;;;;;;5018988;28;20022;-86
2021/08/20 09:03:23;;;;;;;16.73;13.75;;;21.50;95.40;;;;;;5018318;28;20470;-86
2021/08/20 09:05:49;;;;;;;15.25;12.77;;;21.50;94.90;;;;;;5017966;28;20505;-86
2021/08/20 09:08:18;;;;;;;15.20;11.75;;;21.50;94.80;;;;;;5018993;28;20026;-85
2021/08/20 09:10:54;;;;;;;12.90;11.10;;;21.50;94.60;;;;;;5015411;28;20056;-86
2021/08/20 09:13:22;;;;;;;16.40;11.65;;;21.40;94.50;;;;;;5016671;28;20389;-86
2021/08/20 09:16:06;;;;;;;13.02;10.85;;;21.40;94.60;;;;;;5016871;28;20044;-86
2021/08/20 09:18:31;;;;;;;12.70;11.20;;;21.50;94.60;;;;;;5012873;28;20924;-86
2021/08/20 09:20:57;;;;;;;16.27;13.18;;;21.70;94.60;;;;;;5033940;28;20041;-87
2021/08/20 09:23:24;;;;;;;14.13;11.65;;;21.80;94.30;;;;;;5016106;28;20033;-85
2021/08/20 09:25:52;;;;;;;15.65;13.00;;;21.90;94.50;;;;;;5035151;28;20390;-85
2021/08/20 09:28:34;;;;;;;15.82;13.60;;;22.10;94.40;;;;;;5019349;28;20032;-86
2021/08/20 09:31:27;;;;;;;14.40;12.90;;;22.20;94.00;;;;;;5019383;28;20038;-86
2021/08/20 09:33:53;;;;;;;13.07;11.35;;;22.30;93.70;;;;;;5011805;28;20029;-85
2021/08/20 09:36:20;;;;;;;14.65;12.05;;;22.30;93.70;;;;;;5005466;28;20390;-85
2021/08/20 09:38:55;;;;;;;13.80;12.00;;;22.30;93.40;;;;;;5017331;28;20496;-85
2021/08/20 09:41:37;;;;;;;13.77;10.90;;;22.30;93.10;;;;;;5018135;28;20056;-86
2021/08/20 09:44:07;;;;;;;12.55;11.07;;;22.30;92.90;;;;;;5017306;28;20104;-85
2021/08/20 09:46:44;;;;;;;13.75;12.32;;;22.20;92.80;;;;;;5012923;28;20037;-85
2021/08/20 09:49:10;;;;;;;12.93;11.50;;;22.10;92.70;;;;;;5018424;28;20168;-85
2021/08/20 09:51:45;;;;;;;12.63;11.25;;;22.10;92.50;;;;;;5016679;28;20505;-86
2021/08/20 09:54:13;;;;;;;11.48;9.82;;;22.30;92.80;;;;;;5016789;28;20029;-85
2021/08/20 09:56:39;;;;;;;10.55;9.23;;;22.40;92.60;;;;;;5015545;28;20132;-86
2021/08/20 09:59:07;;;;;;;11.10;10.00;;;22.60;92.20;;;;;;5016812;28;20080;-86
2021/08/20 10:01:39;;;;;;;11.40;9.70;;;22.90;91.80;;;;;;5017311;28;20116;-86
2021/08/20 10:04:06;;;;;;;;;;;22.90;91.30;;;;;;5017876;28;20116;-87
2021/08/20 10:06:41;;;;;;;12.98;10.35;;;22.90;91.40;;;;;;5014298;28;19909;-87
2021/08/20 10:09:12;;;;;;;13.05;11.68;;;22.90;91.20;;;;;;5033066;28;20112;-86
2021/08/20 10:11:46;;;;;;;14.68;11.60;;;22.80;91.10;;;;;;5016052;28;20053;-86
2021/08/20 10:14:12;;;;;;;14.70;12.27;;;22.70;90.60;;;;;;5016171;28;20551;-86
2021/08/20 10:16:38;;;;;;;14.23;12.63;;;22.60;90.80;;;;;;5013620;28;20045;-85
2021/08/20 10:19:06;;;;;;;14.38;12.80;;;22.50;91.00;;;;;;5014815;28;20116;-85
2021/08/20 10:21:34;;;;;;;15.73;13.05;;;22.40;91.10;;;;;;5031768;28;20045;-86
2021/08/20 10:24:00;;;;;;;12.75;11.45;;;22.40;91.10;;;;;;5015321;28;20032;-89
2021/08/20 10:26:26;;;;;;;12.77;11.48;;;22.40;91.10;;;;;;5014420;28;20394;-87
2021/08/20 10:28:53;;;;;;;13.10;11.00;;;22.40;91.30;;;;;;5001675;28;20025;-87
2021/08/20 10:31:21;;;;;;;12.88;11.27;;;22.40;91.10;;;;;;5016976;28;20025;-85
2021/08/20 10:33:47;;;;;;;14.32;11.88;;;22.30;91.00;;;;;;5034293;28;20071;-86
2021/08/20 10:36:14;;;;;;;13.52;11.63;;;22.30;91.00;;;;;;5016941;28;20038;-86
2021/08/20 10:38:39;;;;;;;15.20;12.40;;;22.30;91.30;;;;;;5016511;28;20025;-86
2021/08/20 10:41:15;;;;;;;12.73;11.30;;;22.50;91.40;;;;;;5014964;28;20096;-86
2021/08/20 10:44:09;;;;;;;12.35;11.13;;;22.70;91.00;;;;;;5017441;28;20025;-86
2021/08/20 10:46:35;;;;;;;12.55;11.00;;;22.80;90.80;;;;;;5015940;28;20056;-86
2021/08/20 10:49:10;;;;;;;12.13;9.75;;;23.00;90.70;;;;;;5017134;28;20076;-86
2021/08/20 10:51:56;;;;;;;13.40;10.55;;;23.10;90.50;;;;;;5012046;28;20029;-86
2021/08/20 10:54:35;;;;;;;11.45;9.95;;;23.20;90.10;;;;;;5016480;28;20029;-86
2021/08/20 10:57:02;;;;;;;10.95;9.77;;;23.30;90.00;;;;;;5034771;28;20565;-86
2021/08/20 10:59:43;;;;;;;12.05;9.52;;;23.40;89.30;;;;;;5014324;28;20481;-86
2021/08/20 11:02:18;;;;;;;10.32;8.68;;;23.30;88.60;;;;;;5005982;28;20087;-86
2021/08/20 11:05:00;;;;;;;11.07;9.18;;;23.20;88.70;;;;;;5012500;28;20397;-86
2021/08/20 11:07:37;;;;;;;;;;;23.10;89.50;;;;;;5005880;28;20184;-86
2021/08/20 11:10:09;;;;;;;11.32;8.77;;;23.10;89.50;;;;;;5004477;28;20270;-86
2021/08/20 11:12:48;;;;;;;10.50;9.48;;;23.10;89.00;;;;;;5015028;28;20485;-86
2021/08/20 11:15:42;;;;;;;11.95;10.25;;;23.10;89.30;;;;;;5015626;28;20131;-85
2021/08/20 11:18:07;;;;;;;10.20;7.78;;;23.20;88.50;;;;;;5016953;28;20049;-86
2021/08/20 11:20:45;;;;;;;9.48;8.48;;;23.30;88.10;;;;;;5016288;28;20022;-86
2021/08/20 11:23:13;;;;;;;10.93;9.27;;;23.30;88.70;;;;;;5015596;28;20029;-87
2021/08/20 11:25:39;;;;;;;11.13;8.88;;;23.40;87.60;;;;;;5033174;28;20051;-87
2021/08/20 11:28:09;;;;;;;10.27;8.55;;;23.50;87.50;;;;;;5015067;28;20104;-87
2021/08/20 11:30:38;;;;;;;12.75;10.45;;;23.80;87.10;;;;;;5033680;28;20025;-86
2021/08/20 11:33:37;;;;;;;10.73;9.63;;;24.00;86.40;;;;;;5016268;28;20087;-87
2021/08/20 11:36:22;;;;;;;10.35;9.23;;;24.20;85.80;;;;;;5000127;28;20529;-86
2021/08/20 11:38:58;;;;;;;10.15;8.98;;;24.30;85.00;;;;;;5013675;28;20022;-86
2021/08/20 11:41:35;;;;;;;10.52;8.75;;;24.30;84.30;;;;;;4998560;28;20033;-86
2021/08/20 11:44:06;;;;;;;9.00;7.65;;;24.20;84.10;;;;;;5016209;28;20091;-85
2021/08/20 11:46:43;;;;;;;9.90;8.52;;;24.20;83.70;;;;;;5016706;28;20040;-86
2021/08/20 11:49:11;;;;;;;8.00;7.20;;;24.00;83.60;;;;;;5027603;28;20028;-86
2021/08/20 11:51:42;;;;;;;10.32;9.32;;;24.00;84.80;;;;;;5016627;28;20033;-87
2021/08/20 11:54:12;;;;;;;11.77;9.93;;;24.10;84.20;;;;;;5010937;28;20105;-89
2021/08/20 11:56:49;;;;;;;9.63;8.73;;;24.00;84.30;;;;;;5004004;28;20157;-87
2021/08/20 11:59:15;;;;;;;8.82;7.82;;;24.00;83.70;;;;;;5007799;28;20036;-87
2021/08/20 12:01:41;;;;;;;10.70;8.30;;;24.10;84.00;;;;;;5006565;28;20026;-88
2021/08/20 12:04:08;;;;;;;11.45;10.25;;;24.20;82.90;;;;;;5014837;28;20029;-88
2021/08/20 12:06:35;;;;;;;10.73;9.73;;;24.40;81.70;;;;;;5029828;28;20034;-87
2021/08/20 12:09:11;;;;;;;12.02;10.88;;;24.40;81.90;;;;;;5032253;28;20389;-87
2021/08/20 12:11:37;;;;;;;11.52;10.43;;;24.60;81.30;;;;;;5013972;28;20072;-86
2021/08/20 12:14:03;;;;;;;11.80;10.70;;;24.70;80.60;;;;;;5014990;28;20117;-86
2021/08/20 12:16:36;;;;;;;13.75;12.25;;;24.90;80.00;;;;;;5013386;28;20136;-87
2021/08/20 12:19:19;;;;;;;11.52;10.30;;;25.00;80.10;;;;;;5032964;28;20022;-87
2021/08/20 12:21:51;;;;;;;13.63;12.23;;;25.20;80.00;;;;;;5003817;28;20104;-87
2021/08/20 12:24:30;;;;;;;;;;;25.40;78.90;;;;;;5013628;28;20539;-86
2021/08/20 12:27:38;;;;;;;13.65;12.30;;;25.40;79.40;;;;;;5003268;28;20014;-86
2021/08/20 12:30:06;;;;;;;11.07;9.98;;;25.60;79.10;;;;;;4961377;28;20061;-87